Time;durP1;ratioP1;P1;durP2;ratioP2;P2;SDS_P1;SDS_P2;PMS_P1;PMS_P2;Temp;Humidity;BMP_temperature;BMP_pressure;BME280_temperature;BME280_humidity;BME280_pressure;Samples;Min_cycle;Max_cycle;Signal;HPM_P1;HPM_P2
2023/02/19 00:00:59;;;;;;;13.43;4.55;;;11.20;75.00;;;;;;4923212;29;20040;-75
2023/02/19 00:03:26;;;;;;;9.88;4.90;;;11.20;75.00;;;;;;4925485;29;20565;-75
2023/02/19 00:05:52;;;;;;;11.63;4.80;;;11.20;75.00;;;;;;4924561;29;20043;-75
2023/02/19 00:08:18;;;;;;;7.95;3.00;;;11.20;75.00;;;;;;4920630;29;20083;-76
2023/02/19 00:10:44;;;;;;;13.50;4.47;;;11.20;75.00;;;;;;4922023;29;20500;-74
2023/02/19 00:13:10;;;;;;;10.50;3.92;;;11.10;74.80;;;;;;4917872;29;20024;-75
2023/02/19 00:15:36;;;;;;;9.00;3.28;;;11.10;74.80;;;;;;4922876;29;20039;-75
2023/02/19 00:18:02;;;;;;;14.35;4.63;;;11.10;74.80;;;;;;4923651;29;20043;-75
2023/02/19 00:20:28;;;;;;;12.18;3.17;;;11.10;74.80;;;;;;4925138;29;20306;-76
2023/02/19 00:22:54;;;;;;;12.05;3.85;;;11.10;74.80;;;;;;4925343;29;20043;-75
2023/02/19 00:25:20;;;;;;;12.25;4.72;;;11.10;74.80;;;;;;4924019;29;20038;-75
2023/02/19 00:27:46;;;;;;;15.48;4.22;;;11.10;74.80;;;;;;4920985;29;20028;-75
2023/02/19 00:30:12;;;;;;;14.27;4.28;;;11.10;74.80;;;;;;4917255;29;20075;-75
2023/02/19 00:32:38;;;;;;;10.40;3.33;;;11.10;74.80;;;;;;4916573;29;20047;-75
2023/02/19 00:35:04;;;;;;;12.73;3.88;;;11.10;74.80;;;;;;4922129;29;20037;-76
2023/02/19 00:37:30;;;;;;;10.70;3.22;;;11.10;74.80;;;;;;4924388;29;20484;-75
2023/02/19 00:39:56;;;;;;;11.27;4.13;;;11.10;74.80;;;;;;4923281;29;20091;-75
2023/02/19 00:42:22;;;;;;;12.30;3.92;;;11.10;74.80;;;;;;4900475;29;20554;-75
2023/02/19 00:44:47;;;;;;;8.65;3.30;;;11.10;74.80;;;;;;4922534;29;20023;-75
2023/02/19 00:47:13;;;;;;;14.52;4.13;;;11.10;74.80;;;;;;4924566;29;20054;-74
2023/02/19 00:49:39;;;;;;;11.80;4.57;;;11.10;74.80;;;;;;4921786;29;20028;-75
2023/02/19 00:52:05;;;;;;;18.33;4.57;;;11.10;74.80;;;;;;4924406;29;20510;-75
2023/02/19 00:54:34;;;;;;;15.82;4.32;;;11.10;74.80;;;;;;4922155;29;20257;-75
2023/02/19 00:57:00;;;;;;;15.63;4.13;;;11.10;74.70;;;;;;4920081;29;20043;-75
2023/02/19 00:59:26;;;;;;;16.33;4.05;;;11.10;74.80;;;;;;4920261;29;20500;-75
2023/02/19 01:01:52;;;;;;;16.70;3.85;;;11.10;74.80;;;;;;4908322;29;20082;-75
2023/02/19 01:04:18;;;;;;;17.23;4.43;;;11.10;74.80;;;;;;4907690;29;20060;-75
2023/02/19 01:06:44;;;;;;;14.68;4.30;;;11.10;74.80;;;;;;4923500;29;20070;-75
2023/02/19 01:09:10;;;;;;;15.77;3.60;;;11.10;74.80;;;;;;4922861;29;20058;-75
2023/02/19 01:11:36;;;;;;;11.55;3.75;;;11.10;74.80;;;;;;4923337;29;20812;-75
2023/02/19 01:14:03;;;;;;;13.57;3.85;;;11.10;74.80;;;;;;4925350;29;20035;-75
2023/02/19 01:16:29;;;;;;;12.63;4.13;;;11.10;74.70;;;;;;4923529;29;20039;-75
2023/02/19 01:18:56;;;;;;;12.18;3.75;;;11.10;74.70;;;;;;4919820;29;20290;-75
2023/02/19 01:21:24;;;;;;;13.95;3.72;;;11.10;74.70;;;;;;4924191;29;20091;-75
2023/02/19 01:23:51;;;;;;;10.32;3.30;;;11.10;74.70;;;;;;4917523;29;20063;-76
2023/02/19 01:26:20;;;;;;;9.68;2.97;;;11.10;74.70;;;;;;4926078;29;20043;-75
2023/02/19 01:28:47;;;;;;;9.57;3.28;;;11.10;74.70;;;;;;4922630;29;20051;-75
2023/02/19 01:31:16;;;;;;;10.55;2.90;;;11.10;74.70;;;;;;4927052;29;20067;-75
2023/02/19 01:33:50;;;;;;;12.57;4.88;;;11.10;74.70;;;;;;4926464;29;20391;-75
2023/02/19 01:36:17;;;;;;;10.10;3.25;;;11.00;74.40;;;;;;4926671;29;20043;-75
2023/02/19 01:38:44;;;;;;;8.68;2.90;;;11.00;74.50;;;;;;4926586;29;20035;-75
2023/02/19 01:41:13;;;;;;;10.98;3.17;;;11.00;74.50;;;;;;4925996;29;20146;-75
2023/02/19 01:44:10;;;;;;;11.38;2.83;;;11.00;74.50;;;;;;4926694;29;20376;-74
2023/02/19 01:46:38;;;;;;;8.45;2.90;;;11.00;74.60;;;;;;4926894;29;20035;-75
2023/02/19 01:49:22;;;;;;;12.98;3.55;;;11.00;74.50;;;;;;4924852;29;20039;-75
2023/02/19 01:52:00;;;;;;;8.95;3.17;;;10.90;74.40;;;;;;4926779;29;20027;-75
2023/02/19 01:54:31;;;;;;;7.05;2.75;;;10.90;74.40;;;;;;4926840;29;20233;-75
2023/02/19 01:56:58;;;;;;;10.88;3.75;;;10.90;74.40;;;;;;4923889;29;20062;-75
2023/02/19 01:59:24;;;;;;;12.55;3.88;;;10.90;74.40;;;;;;4923392;29;20029;-75
2023/02/19 02:01:51;;;;;;;8.95;2.63;;;10.90;74.40;;;;;;4924829;29;20157;-76
2023/02/19 02:04:18;;;;;;;10.13;2.88;;;10.90;74.40;;;;;;4925058;29;20122;-75
2023/02/19 02:06:52;;;;;;;5.72;2.28;;;10.90;74.40;;;;;;4926657;29;20130;-75
2023/02/19 02:12:06;;;;;;;10.25;3.10;;;10.90;74.40;;;;;;4924898;29;20036;-75
2023/02/19 02:14:36;;;;;;;7.32;2.10;;;10.80;74.20;;;;;;4925644;29;20089;-75
2023/02/19 02:17:17;;;;;;;9.40;2.80;;;10.80;74.20;;;;;;4924841;29;20508;-75
2023/02/19 02:20:08;;;;;;;6.07;2.75;;;10.80;74.20;;;;;;4919995;29;20802;-75
2023/02/19 02:23:02;;;;;;;12.27;3.03;;;10.80;74.20;;;;;;4928034;28;20040;-75
2023/02/19 02:26:26;;;;;;;9.55;2.63;;;10.70;74.10;;;;;;4924959;29;20379;-75
2023/02/19 02:29:16;;;;;;;10.98;3.60;;;10.70;74.10;;;;;;4903389;29;20051;-75
2023/02/19 02:31:57;;;;;;;10.23;3.33;;;10.70;74.10;;;;;;4904685;29;20291;-74
2023/02/19 02:34:29;;;;;;;7.60;3.22;;;10.70;74.10;;;;;;4912737;29;20047;-74
2023/02/19 02:36:57;;;;;;;11.20;2.95;;;10.70;74.10;;;;;;4925264;29;20028;-75
2023/02/19 02:39:26;;;;;;;9.15;2.60;;;10.70;74.10;;;;;;4923353;29;20039;-75
2023/02/19 02:47:52;;;;;;;8.90;2.78;;;10.70;74.00;;;;;;4924725;29;20036;-75
2023/02/19 02:50:28;;;;;;;13.27;3.28;;;10.70;74.00;;;;;;4930811;29;20031;-74
2023/02/19 02:55:52;;;;;;;13.07;3.75;;;10.70;74.00;;;;;;4927695;29;20070;-75
2023/02/19 02:58:21;;;;;;;8.85;2.67;;;10.70;74.00;;;;;;4928252;29;20055;-74
2023/02/19 03:03:43;;;;;;;8.23;2.92;;;10.70;73.90;;;;;;4929725;29;20062;-75
2023/02/19 03:06:12;;;;;;;10.77;3.33;;;10.70;74.40;;;;;;4928360;29;20047;-75
2023/02/19 03:08:49;;;;;;;10.85;3.35;;;10.70;73.90;;;;;;4928989;29;20074;-74
2023/02/19 03:20:02;;;;;;;7.68;2.03;;;10.70;73.80;;;;;;4924368;29;20051;-74
2023/02/19 03:22:36;;;;;;;12.98;2.65;;;10.70;73.70;;;;;;4929205;29;20849;-75
2023/02/19 03:28:10;;;;;;;13.88;3.10;;;10.70;73.70;;;;;;4922317;29;20071;-74
2023/02/19 03:30:43;;;;;;;9.60;3.72;;;10.70;73.60;;;;;;4930760;29;20055;-75
2023/02/19 03:33:20;;;;;;;8.70;2.58;;;10.70;73.60;;;;;;4928802;29;20102;-75
2023/02/19 03:35:53;;;;;;;8.57;2.10;;;10.70;73.60;;;;;;4929467;29;20071;-75
2023/02/19 03:38:36;;;;;;;9.68;2.65;;;10.70;73.60;;;;;;4926310;29;20396;-75
2023/02/19 03:41:30;;;;;;;9.57;2.50;;;10.70;73.60;;;;;;4928983;29;20047;-75
2023/02/19 03:44:23;;;;;;;9.25;1.92;;;10.70;73.60;;;;;;4921053;29;20427;-75
2023/02/19 03:47:04;;;;;;;10.43;2.70;;;10.70;73.60;;;;;;4929903;29;20032;-75
2023/02/19 03:49:58;;;;;;;7.22;2.30;;;10.80;73.70;;;;;;4943213;28;20032;-75
2023/02/19 03:53:04;;;;;;;11.25;2.90;;;10.80;73.80;;;;;;4928115;29;20363;-75
2023/02/19 03:55:42;;;;;;;10.38;2.92;;;10.70;73.50;;;;;;4927806;29;20118;-75
2023/02/19 03:58:23;;;;;;;9.30;2.35;;;10.70;73.50;;;;;;4937822;28;20066;-75
2023/02/19 04:01:17;;;;;;;7.95;2.80;;;10.80;73.70;;;;;;4927498;29;20067;-75
2023/02/19 04:04:21;;;;;;;9.75;2.55;;;10.70;73.50;;;;;;4926842;29;20039;-75
2023/02/19 04:06:51;;;;;;;;;;;10.70;73.50;;;;;;4920936;29;20086;-75
2023/02/19 04:09:20;;;;;;;11.13;2.20;;;10.70;73.40;;;;;;4926270;29;19915;-75
2023/02/19 04:11:53;;;;;;;9.30;2.30;;;10.70;73.90;;;;;;4928906;29;20035;-75
2023/02/19 04:14:29;;;;;;;9.73;2.00;;;10.70;73.30;;;;;;4937073;29;20488;-75
2023/02/19 04:17:01;;;;;;;9.07;3.10;;;10.70;73.40;;;;;;4922496;29;20051;-75
2023/02/19 04:19:31;;;;;;;10.18;2.72;;;10.70;73.40;;;;;;4929434;29;20144;-75
2023/02/19 04:21:58;;;;;;;10.38;2.65;;;10.70;73.40;;;;;;4919729;29;20111;-74
2023/02/19 04:24:31;;;;;;;13.70;2.72;;;10.70;73.90;;;;;;4928632;29;20126;-75
2023/02/19 04:26:57;;;;;;;11.52;3.40;;;10.70;73.40;;;;;;4925473;29;20582;-75
2023/02/19 04:29:23;;;;;;;10.40;2.28;;;10.60;73.20;;;;;;4923690;29;20051;-74
2023/02/19 04:31:49;;;;;;;7.72;2.17;;;10.60;73.20;;;;;;4926861;29;20094;-75
2023/02/19 04:34:15;;;;;;;7.55;2.40;;;10.60;73.20;;;;;;4928977;29;20031;-75
2023/02/19 04:36:41;;;;;;;11.38;2.97;;;10.60;73.20;;;;;;4930065;29;20367;-75
2023/02/19 04:39:07;;;;;;;13.63;3.22;;;10.60;73.30;;;;;;4928120;29;20500;-75
2023/02/19 04:41:33;;;;;;;8.02;2.15;;;10.60;73.30;;;;;;4927797;29;20044;-75
2023/02/19 04:43:59;;;;;;;7.22;3.20;;;10.60;73.30;;;;;;4928735;29;20163;-75
2023/02/19 04:46:25;;;;;;;9.02;2.08;;;10.50;73.10;;;;;;4916995;29;20134;-75
2023/02/19 04:48:51;;;;;;;14.18;2.90;;;10.50;73.10;;;;;;4930034;29;20032;-75
2023/02/19 04:51:17;;;;;;;9.50;2.40;;;10.50;73.10;;;;;;4929966;29;20123;-75
2023/02/19 04:53:43;;;;;;;7.78;2.60;;;10.60;73.30;;;;;;4921630;29;20168;-76
2023/02/19 04:56:12;;;;;;;9.63;2.40;;;10.50;73.10;;;;;;4926625;29;20325;-75
2023/02/19 04:58:39;;;;;;;9.38;3.00;;;10.50;73.10;;;;;;4919037;29;20032;-75
2023/02/19 05:01:06;;;;;;;12.63;2.70;;;10.50;73.10;;;;;;4924675;29;20071;-76
2023/02/19 05:03:33;;;;;;;10.50;3.35;;;10.40;72.90;;;;;;4927945;29;20032;-75
2023/02/19 05:06:04;;;;;;;11.73;3.05;;;10.40;73.00;;;;;;4927672;29;20566;-75
2023/02/19 05:08:30;;;;;;;9.32;2.10;;;10.40;73.00;;;;;;4928604;29;20373;-75
2023/02/19 05:10:58;;;;;;;10.20;2.47;;;10.40;73.00;;;;;;4925525;29;20043;-75
2023/02/19 05:13:24;;;;;;;10.75;2.08;;;10.40;73.10;;;;;;4927869;29;20621;-75
2023/02/19 05:15:57;;;;;;;9.77;2.95;;;10.30;73.00;;;;;;4929600;29;20074;-76
2023/02/19 05:18:23;;;;;;;11.55;2.70;;;10.30;73.00;;;;;;4928613;29;20399;-76
2023/02/19 05:20:50;;;;;;;10.32;2.65;;;10.30;73.00;;;;;;4928868;29;20071;-76
2023/02/19 05:23:16;;;;;;;11.02;2.63;;;10.30;73.00;;;;;;4925159;29;20043;-77
2023/02/19 05:25:43;;;;;;;11.98;2.85;;;10.30;73.00;;;;;;4928819;29;20027;-76
2023/02/19 05:28:18;;;;;;;10.38;3.38;;;10.20;72.90;;;;;;4924095;29;20039;-76
2023/02/19 05:30:50;;;;;;;9.43;2.67;;;10.20;72.90;;;;;;4920395;29;20043;-76
2023/02/19 05:33:18;;;;;;;10.40;2.42;;;10.20;73.00;;;;;;4928474;29;20068;-76
2023/02/19 05:35:47;;;;;;;11.05;2.85;;;10.20;73.00;;;;;;4933128;28;20048;-76
2023/02/19 05:38:14;;;;;;;10.05;3.60;;;10.20;73.00;;;;;;4924432;29;20036;-76
2023/02/19 05:40:40;;;;;;;9.52;3.95;;;10.10;72.90;;;;;;4925534;29;20123;-75
2023/02/19 05:43:07;;;;;;;9.45;2.78;;;10.10;72.90;;;;;;4927770;29;20036;-76
2023/02/19 05:45:34;;;;;;;6.97;2.60;;;10.10;72.90;;;;;;4922485;29;20098;-74
2023/02/19 05:48:00;;;;;;;10.13;2.47;;;10.10;73.00;;;;;;4924453;29;20035;-75
2023/02/19 05:50:27;;;;;;;11.13;3.90;;;10.10;73.00;;;;;;4917188;29;20259;-76
2023/02/19 05:52:53;;;;;;;12.05;3.28;;;10.10;73.00;;;;;;4921999;29;20049;-74
2023/02/19 05:55:19;;;;;;;8.10;2.22;;;10.00;72.90;;;;;;4923575;29;20024;-74
2023/02/19 05:57:47;;;;;;;9.15;3.00;;;10.00;73.10;;;;;;4921801;29;20627;-75
2023/02/19 06:00:16;;;;;;;8.48;2.60;;;10.00;72.90;;;;;;4923032;29;20024;-74
2023/02/19 06:02:42;;;;;;;11.20;3.22;;;10.00;72.90;;;;;;4918459;29;20439;-75
2023/02/19 06:05:09;;;;;;;11.68;4.53;;;10.00;73.00;;;;;;4916470;29;20176;-76
2023/02/19 06:07:38;;;;;;;8.93;3.05;;;10.00;73.00;;;;;;4922358;29;20408;-76
2023/02/19 06:10:10;;;;;;;12.27;2.85;;;10.00;73.10;;;;;;4915121;29;20416;-76
2023/02/19 06:12:37;;;;;;;7.93;1.92;;;10.00;73.00;;;;;;4914516;29;20361;-75
2023/02/19 06:15:04;;;;;;;8.23;2.50;;;9.90;72.90;;;;;;4927394;29;20068;-76
2023/02/19 06:17:34;;;;;;;8.30;2.38;;;9.90;73.00;;;;;;4926090;29;20036;-76
2023/02/19 06:20:00;;;;;;;9.13;2.30;;;9.80;72.80;;;;;;4928298;29;20277;-76
2023/02/19 06:22:27;;;;;;;15.30;2.90;;;9.80;72.80;;;;;;4926797;29;20519;-76
2023/02/19 06:24:53;;;;;;;12.68;3.35;;;9.80;72.90;;;;;;4924433;29;20036;-75
2023/02/19 06:27:19;;;;;;;11.13;2.53;;;9.70;72.70;;;;;;4927686;29;20465;-76
2023/02/19 06:29:45;;;;;;;9.77;2.60;;;9.80;73.00;;;;;;4921362;29;20071;-75
2023/02/19 06:32:10;;;;;;;10.02;3.17;;;9.70;72.80;;;;;;4926482;29;20120;-75
2023/02/19 06:34:36;;;;;;;17.95;4.47;;;9.70;72.90;;;;;;4925562;29;20523;-77
2023/02/19 06:37:02;;;;;;;8.57;2.67;;;9.70;72.90;;;;;;4921440;29;20496;-77
2023/02/19 06:39:28;;;;;;;8.80;3.35;;;9.60;72.80;;;;;;4921213;29;20099;-77
2023/02/19 06:41:55;;;;;;;9.50;2.45;;;9.60;72.80;;;;;;4925067;29;20043;-76
2023/02/19 06:44:22;;;;;;;11.43;2.60;;;9.50;72.70;;;;;;4922736;29;20024;-77
2023/02/19 06:46:47;;;;;;;8.68;2.47;;;9.60;72.90;;;;;;4927100;29;20038;-77
2023/02/19 06:49:14;;;;;;;7.82;2.55;;;9.50;72.70;;;;;;4925209;29;20039;-78
2023/02/19 06:51:40;;;;;;;8.75;1.90;;;9.60;73.00;;;;;;4928510;29;20058;-78
2023/02/19 06:54:06;;;;;;;10.32;2.40;;;9.50;72.80;;;;;;4933348;29;20531;-78
2023/02/19 06:56:36;;;;;;;9.55;3.28;;;9.60;73.00;;;;;;4931779;28;20032;-82
2023/02/19 06:59:09;;;;;;;9.10;2.60;;;9.50;72.80;;;;;;4924492;29;20039;-77
2023/02/19 07:01:36;;;;;;;5.95;2.50;;;9.50;72.80;;;;;;4924415;29;20122;-76
2023/02/19 07:04:03;;;;;;;16.30;3.40;;;9.50;72.80;;;;;;4925646;29;20119;-75
2023/02/19 07:06:29;;;;;;;11.45;2.85;;;9.50;72.80;;;;;;4926412;29;20040;-75
2023/02/19 07:08:56;;;;;;;10.40;3.30;;;9.50;72.80;;;;;;4923743;29;20135;-76
2023/02/19 07:11:23;;;;;;;11.70;2.90;;;9.50;72.80;;;;;;4924358;29;20514;-75
2023/02/19 07:13:59;;;;;;;9.65;3.58;;;9.50;72.80;;;;;;4926469;29;20619;-82
2023/02/19 07:16:27;;;;;;;9.23;2.40;;;9.50;72.80;;;;;;4929447;29;20567;-86
2023/02/19 07:18:56;;;;;;;9.88;3.95;;;9.50;72.80;;;;;;4923332;28;20423;-81
2023/02/19 07:21:22;;;;;;;12.02;3.53;;;9.50;72.80;;;;;;4921859;29;20376;-81
2023/02/19 07:23:48;;;;;;;8.30;3.58;;;9.50;72.80;;;;;;4929376;29;20064;-82
2023/02/19 07:26:16;;;;;;;8.35;3.13;;;9.50;72.80;;;;;;4922111;29;20797;-82
2023/02/19 07:28:43;;;;;;;15.90;2.97;;;9.40;72.70;;;;;;4917244;29;20046;-81
2023/02/19 07:31:09;;;;;;;17.15;3.80;;;9.50;73.10;;;;;;4921673;29;20060;-81
2023/02/19 07:33:35;;;;;;;17.90;3.63;;;9.50;73.20;;;;;;4923018;29;20103;-75
2023/02/19 07:36:02;;;;;;;12.25;3.55;;;9.50;73.30;;;;;;4921659;29;20494;-75
2023/02/19 07:38:28;;;;;;;12.20;3.83;;;9.60;73.40;;;;;;4923221;29;20074;-75
2023/02/19 07:40:58;;;;;;;13.30;2.97;;;9.60;73.30;;;;;;4920951;29;20145;-83
2023/02/19 07:43:25;;;;;;;8.68;2.90;;;9.60;73.40;;;;;;4921493;29;20024;-81
2023/02/19 07:45:52;;;;;;;12.73;2.72;;;9.60;73.30;;;;;;4919175;29;20050;-83
2023/02/19 07:48:19;;;;;;;15.15;2.70;;;9.60;73.30;;;;;;4916439;29;20126;-81
2023/02/19 07:50:52;;;;;;;11.13;2.85;;;9.60;73.30;;;;;;4906569;29;20040;-81
2023/02/19 07:53:19;;;;;;;10.52;3.22;;;9.60;73.30;;;;;;4927215;29;20023;-79
2023/02/19 07:55:44;;;;;;;11.45;3.15;;;9.60;73.20;;;;;;4927665;29;20035;-82
2023/02/19 07:58:10;;;;;;;8.30;2.67;;;9.60;73.20;;;;;;4919750;29;20042;-82
2023/02/19 08:00:36;;;;;;;9.07;2.88;;;9.60;73.20;;;;;;4924180;29;20407;-82
2023/02/19 08:03:05;;;;;;;8.10;2.22;;;9.60;73.10;;;;;;4925493;29;20487;-84
2023/02/19 08:05:41;;;;;;;9.63;3.00;;;9.60;73.10;;;;;;4930028;29;20127;-84
2023/02/19 08:08:09;;;;;;;12.32;3.97;;;9.50;73.00;;;;;;4923909;29;20031;-82
2023/02/19 08:13:27;;;;;;;11.75;2.75;;;9.60;73.00;;;;;;4922836;29;20052;-75
2023/02/19 08:16:02;;;;;;;8.13;3.00;;;9.60;72.90;;;;;;4914906;29;20254;-75
2023/02/19 08:18:31;;;;;;;13.30;3.78;;;9.60;72.80;;;;;;4923136;29;20050;-82
2023/02/19 08:20:58;;;;;;;6.80;2.60;;;9.60;72.80;;;;;;4920141;29;20052;-81
2023/02/19 08:23:25;;;;;;;9.73;2.85;;;9.70;72.90;;;;;;4923105;29;20205;-85
2023/02/19 08:25:52;;;;;;;8.63;3.03;;;9.60;72.70;;;;;;4915243;29;20035;-79
2023/02/19 08:28:18;;;;;;;10.25;2.63;;;9.60;72.70;;;;;;4918926;29;20038;-80
2023/02/19 08:30:46;;;;;;;12.45;3.25;;;9.60;72.60;;;;;;4923607;29;20060;-79
2023/02/19 08:33:14;;;;;;;9.25;2.42;;;9.70;72.70;;;;;;4922406;29;20075;-78
2023/02/19 08:35:41;;;;;;;11.23;2.78;;;9.70;72.60;;;;;;4920524;29;20123;-82
2023/02/19 08:38:09;;;;;;;8.30;2.13;;;9.70;72.50;;;;;;4919546;29;20044;-81
2023/02/19 08:40:36;;;;;;;7.95;2.95;;;9.80;72.60;;;;;;4920582;29;20492;-82
2023/02/19 08:43:14;;;;;;;8.23;2.92;;;9.90;72.70;;;;;;4918857;29;20055;-81
2023/02/19 08:45:42;;;;;;;8.25;3.25;;;9.90;72.60;;;;;;4923066;29;20122;-75
2023/02/19 08:48:09;;;;;;;12.63;2.55;;;9.90;72.40;;;;;;4919080;29;20134;-76
2023/02/19 08:50:35;;;;;;;5.97;2.75;;;10.00;72.50;;;;;;4918338;29;20122;-77
2023/02/19 08:53:03;;;;;;;6.15;2.60;;;10.00;72.40;;;;;;4922628;29;20035;-78
2023/02/19 08:55:29;;;;;;;11.85;3.47;;;10.00;72.30;;;;;;4920317;29;20158;-75
2023/02/19 08:57:55;;;;;;;9.55;3.85;;;10.10;72.40;;;;;;4911519;29;20063;-76
2023/02/19 09:00:21;;;;;;;8.13;3.08;;;10.20;72.40;;;;;;4920785;29;20063;-74
2023/02/19 09:02:48;;;;;;;10.32;2.90;;;10.20;72.30;;;;;;4917115;29;20690;-75
2023/02/19 09:05:14;;;;;;;11.95;3.63;;;10.30;72.40;;;;;;4931632;29;20069;-74
2023/02/19 09:07:41;;;;;;;12.25;2.97;;;10.30;72.40;;;;;;4922772;29;20504;-74
2023/02/19 09:10:09;;;;;;;10.75;3.15;;;10.40;72.50;;;;;;4918956;29;20062;-76
2023/02/19 09:12:37;;;;;;;10.57;2.97;;;10.50;72.60;;;;;;4922328;29;20039;-74
2023/02/19 09:15:04;;;;;;;9.20;3.13;;;10.50;72.40;;;;;;4924613;29;20431;-76
2023/02/19 09:17:30;;;;;;;8.00;3.25;;;10.60;72.50;;;;;;4927439;28;20043;-79
2023/02/19 09:19:56;;;;;;;8.60;2.72;;;10.70;72.50;;;;;;4926242;29;20043;-79
2023/02/19 09:22:22;;;;;;;9.68;3.35;;;10.80;72.60;;;;;;4931019;28;20031;-81
2023/02/19 09:24:47;;;;;;;11.20;2.53;;;10.80;72.40;;;;;;4927105;28;20046;-79
2023/02/19 09:27:16;;;;;;;9.63;2.42;;;10.90;72.50;;;;;;4928485;29;20320;-81
2023/02/19 09:29:42;;;;;;;10.68;2.92;;;10.90;72.30;;;;;;4928369;29;20538;-81
2023/02/19 09:32:08;;;;;;;13.68;3.08;;;11.00;72.40;;;;;;4930443;29;20400;-81
2023/02/19 09:34:34;;;;;;;9.98;3.22;;;11.10;72.40;;;;;;4929129;29;20547;-78
2023/02/19 09:37:00;;;;;;;9.40;3.00;;;11.10;72.30;;;;;;4927911;29;20039;-80
2023/02/19 09:39:26;;;;;;;7.30;2.88;;;11.20;72.30;;;;;;4928223;29;20406;-80
2023/02/19 09:42:09;;;;;;;8.15;2.88;;;11.30;72.40;;;;;;4923679;29;20495;-80
2023/02/19 09:44:41;;;;;;;8.70;3.45;;;11.30;72.20;;;;;;4915008;29;20036;-76
2023/02/19 09:47:19;;;;;;;10.82;3.40;;;11.40;72.20;;;;;;4916626;29;20043;-77
2023/02/19 09:49:51;;;;;;;9.13;3.28;;;11.50;72.20;;;;;;4923301;29;20036;-77
2023/02/19 09:52:34;;;;;;;9.50;3.90;;;11.60;72.10;;;;;;4925311;29;20050;-78
2023/02/19 09:55:03;;;;;;;7.60;2.90;;;11.70;72.10;;;;;;4924488;29;20327;-77
2023/02/19 09:57:31;;;;;;;9.05;3.72;;;11.70;71.90;;;;;;4916002;29;20039;-77
2023/02/19 10:00:19;;;;;;;10.57;4.65;;;11.80;71.90;;;;;;4922525;29;20038;-75
2023/02/19 10:02:46;;;;;;;16.42;4.95;;;11.80;71.90;;;;;;4924178;29;20214;-75
2023/02/19 10:05:14;;;;;;;10.88;3.50;;;11.70;71.80;;;;;;4925881;29;20036;-76
2023/02/19 10:07:47;;;;;;;11.95;3.97;;;11.70;71.80;;;;;;4924743;29;20488;-79
2023/02/19 10:10:13;;;;;;;;;;;11.70;71.80;;;;;;4926065;28;20050;-79
2023/02/19 10:12:46;;;;;;;10.95;3.92;;;11.70;71.90;;;;;;4924784;29;19928;-80
2023/02/19 10:15:32;;;;;;;8.20;3.53;;;11.70;71.90;;;;;;4922489;29;20515;-80
2023/02/19 10:17:59;;;;;;;11.00;4.03;;;11.60;71.80;;;;;;4926046;29;20063;-83
2023/02/19 10:20:26;;;;;;;11.75;4.88;;;11.60;71.80;;;;;;4930062;29;20481;-83
2023/02/19 10:23:04;;;;;;;10.95;4.05;;;11.60;71.80;;;;;;4921473;29;20047;-84
2023/02/19 10:25:31;;;;;;;7.50;3.10;;;11.60;71.80;;;;;;4924120;29;20031;-82
2023/02/19 10:27:58;;;;;;;11.20;4.40;;;11.60;71.90;;;;;;4926169;29;20142;-85
2023/02/19 10:30:29;;;;;;;9.75;3.92;;;11.60;71.90;;;;;;4900504;29;20064;-84
2023/02/19 10:33:14;;;;;;;13.68;4.03;;;11.60;71.90;;;;;;4924504;29;20055;-84
2023/02/19 10:36:03;;;;;;;8.98;3.67;;;11.60;71.90;;;;;;4920027;29;20177;-83
2023/02/19 10:38:39;;;;;;;8.20;3.92;;;11.60;71.80;;;;;;4914370;29;20034;-83
2023/02/19 10:41:11;;;;;;;8.15;3.80;;;11.60;71.80;;;;;;4920840;29;20039;-85
2023/02/19 10:43:41;;;;;;;10.10;3.22;;;11.60;71.80;;;;;;4911363;29;20550;-84
2023/02/19 10:46:21;;;;;;;8.18;2.95;;;11.70;71.90;;;;;;4924751;29;20200;-84
2023/02/19 10:49:04;;;;;;;8.27;3.63;;;11.70;71.80;;;;;;4919944;29;20067;-83
2023/02/19 10:51:39;;;;;;;11.35;3.55;;;11.80;71.80;;;;;;4920898;29;20060;-83
2023/02/19 10:54:31;;;;;;;10.75;3.70;;;12.00;71.90;;;;;;4919411;29;20020;-78
2023/02/19 10:57:16;;;;;;;10.50;3.65;;;12.10;71.90;;;;;;4920899;29;20138;-86
2023/02/19 10:59:56;;;;;;;10.77;3.63;;;12.20;72.20;;;;;;4918264;29;20118;-86
2023/02/19 11:02:23;;;;;;;10.82;3.80;;;12.30;72.20;;;;;;4922285;29;20044;-84
2023/02/19 11:05:08;;;;;;;9.40;2.97;;;12.50;72.40;;;;;;4919173;29;20453;-83
2023/02/19 11:07:41;;;;;;;11.57;3.13;;;12.50;72.30;;;;;;4918921;29;20479;-85
2023/02/19 11:10:24;;;;;;;8.85;3.08;;;12.60;72.30;;;;;;4914438;29;20547;-83
2023/02/19 11:12:53;;;;;;;12.88;4.13;;;12.70;72.30;;;;;;4922314;29;20070;-86
2023/02/19 11:15:25;;;;;;;8.55;3.70;;;12.80;72.30;;;;;;4923623;29;20444;-83
2023/02/19 11:18:25;;;;;;;8.32;3.20;;;12.80;72.20;;;;;;4920832;29;20039;-83
2023/02/19 11:20:58;;;;;;;10.10;3.88;;;12.80;72.00;;;;;;4916889;29;20146;-85
2023/02/19 11:23:36;;;;;;;8.97;3.50;;;12.90;72.10;;;;;;4925034;29;20039;-84
2023/02/19 11:26:16;;;;;;;7.90;3.45;;;12.90;72.00;;;;;;4923576;29;20273;-83
2023/02/19 11:28:42;;;;;;;5.32;2.03;;;12.90;71.90;;;;;;4915127;29;20134;-82
2023/02/19 11:31:35;;;;;;;7.78;3.03;;;12.90;71.70;;;;;;4920577;29;20051;-82
2023/02/19 11:34:02;;;;;;;7.50;3.05;;;12.90;71.50;;;;;;4919022;29;20050;-83
2023/02/19 11:36:36;;;;;;;7.47;3.55;;;12.90;71.50;;;;;;4924988;29;20050;-83
2023/02/19 11:39:15;;;;;;;6.40;2.80;;;12.90;71.30;;;;;;4922321;29;20044;-79
2023/02/19 11:41:59;;;;;;;6.75;3.22;;;13.00;71.30;;;;;;4920341;29;20044;-79
2023/02/19 11:44:33;;;;;;;7.35;3.05;;;13.00;71.60;;;;;;4923728;29;20043;-79
2023/02/19 11:47:27;;;;;;;6.63;2.83;;;13.10;72.20;;;;;;4922138;29;20488;-79
2023/02/19 11:50:17;;;;;;;9.05;2.75;;;13.40;72.90;;;;;;4922139;29;20531;-79
2023/02/19 11:53:15;;;;;;;7.82;2.50;;;13.60;73.00;;;;;;4923551;29;20043;-82
2023/02/19 11:56:15;;;;;;;6.63;2.10;;;13.80;72.90;;;;;;4902405;29;20036;-82
2023/02/19 11:58:56;;;;;;;7.70;3.35;;;14.10;73.00;;;;;;4921497;29;20031;-82
2023/02/19 12:01:27;;;;;;;7.55;2.70;;;14.20;72.40;;;;;;4919523;29;20087;-82
2023/02/19 12:04:25;;;;;;;5.30;2.53;;;14.20;72.10;;;;;;4920890;29;20047;-81
2023/02/19 12:07:15;;;;;;;9.65;2.92;;;14.20;71.80;;;;;;4917981;29;20118;-83
2023/02/19 12:10:18;;;;;;;8.02;3.53;;;14.20;71.60;;;;;;4921451;28;20087;-83
2023/02/19 12:13:06;;;;;;;6.38;2.72;;;14.10;71.40;;;;;;4921362;29;20028;-83
2023/02/19 12:15:46;;;;;;;8.93;2.90;;;14.10;71.60;;;;;;4919684;29;20066;-84
2023/02/19 12:18:43;;;;;;;5.57;2.85;;;14.10;71.80;;;;;;4921390;29;20483;-84
2023/02/19 12:21:27;;;;;;;8.75;3.00;;;14.20;72.00;;;;;;4900524;29;20044;-83
2023/02/19 12:24:22;;;;;;;8.20;3.75;;;14.20;71.80;;;;;;4919184;29;20467;-85
2023/02/19 12:26:57;;;;;;;9.30;3.38;;;14.20;71.70;;;;;;4919477;29;20028;-83
2023/02/19 12:29:33;;;;;;;10.45;3.55;;;14.20;71.70;;;;;;4915840;29;20056;-83
2023/02/19 12:32:13;;;;;;;7.28;3.85;;;14.10;71.30;;;;;;4921232;29;20078;-81
2023/02/19 12:35:17;;;;;;;8.63;3.17;;;14.10;71.20;;;;;;4919891;29;20035;-84
2023/02/19 12:38:07;;;;;;;7.72;3.65;;;14.10;71.10;;;;;;4918623;29;20229;-84
2023/02/19 12:41:09;;;;;;;7.45;3.60;;;14.10;71.20;;;;;;4922894;29;20145;-84
2023/02/19 12:43:38;;;;;;;7.50;3.60;;;14.10;71.10;;;;;;4915772;29;20040;-81
2023/02/19 12:46:22;;;;;;;8.80;3.72;;;14.10;71.10;;;;;;4922431;29;20042;-81
2023/02/19 12:48:55;;;;;;;6.20;2.92;;;14.20;71.20;;;;;;4918976;29;20282;-81
2023/02/19 12:51:34;;;;;;;6.55;2.97;;;14.20;71.00;;;;;;4922554;29;20027;-82
2023/02/19 12:54:05;;;;;;;7.45;3.22;;;14.30;71.00;;;;;;4928352;29;20285;-82
2023/02/19 12:56:54;;;;;;;11.15;3.47;;;14.30;71.40;;;;;;4923436;29;20039;-82
2023/02/19 12:59:26;;;;;;;8.73;3.78;;;14.30;70.60;;;;;;4920410;29;20035;-82
2023/02/19 13:02:16;;;;;;;11.68;3.83;;;14.40;70.70;;;;;;4917834;29;20122;-82
2023/02/19 13:04:50;;;;;;;6.65;2.97;;;14.40;70.50;;;;;;4920082;29;20043;-80
2023/02/19 13:07:34;;;;;;;4.45;2.50;;;14.50;70.50;;;;;;4922053;29;20047;-84
2023/02/19 13:10:26;;;;;;;6.65;2.40;;;14.50;70.40;;;;;;4919186;29;20094;-77
2023/02/19 13:12:54;;;;;;;8.05;3.50;;;14.50;70.10;;;;;;4916350;29;20042;-78
2023/02/19 13:15:30;;;;;;;7.15;1.90;;;14.50;70.00;;;;;;4921514;29;20150;-79
2023/02/19 13:17:59;;;;;;;10.40;2.90;;;14.50;69.80;;;;;;4923324;29;20036;-77
2023/02/19 13:20:40;;;;;;;7.25;2.85;;;14.60;69.90;;;;;;4922574;29;20169;-77
2023/02/19 13:26:42;;;;;;;11.07;2.88;;;14.60;70.00;;;;;;4922538;29;20042;-75
2023/02/19 13:29:26;;;;;;;9.57;2.40;;;14.70;70.50;;;;;;4915389;29;20319;-76
2023/02/19 13:31:55;;;;;;;5.22;1.90;;;14.90;70.80;;;;;;4922144;29;20072;-77
2023/02/19 13:34:24;;;;;;;6.70;2.40;;;15.10;71.00;;;;;;4921312;29;20125;-77
2023/02/19 13:36:50;;;;;;;7.03;2.42;;;15.20;71.10;;;;;;4919454;29;20038;-75
2023/02/19 13:39:19;;;;;;;8.48;2.13;;;15.40;71.30;;;;;;4919479;29;20063;-78
2023/02/19 13:41:56;;;;;;;7.63;2.67;;;15.50;71.20;;;;;;4921244;29;20043;-82
2023/02/19 13:44:26;;;;;;;7.38;1.92;;;15.60;71.10;;;;;;4920984;29;20066;-82